KMGEKVPC

Guest
Details From KMGE - DOBBINS ARB
To KVPC - CARTERSVILLE
Flight Number -
Tags generated
Created
Modified
Stats Distance 21 nm / 38 km
Max Altitude 0 ft / 0 m
Waypoints 2
Social Downloads 0
Likes 0
Share VATSIM

Download

Looking for another format? Having issues loading an existing format? Contact us
Advertisement - Login to hide

Notes

Basic altitude profile: - Ascent Rate: 2500ft/min - Ascent Speed: 250kts - Cruise Altitude: 35000ft - Cruise Speed: 420kts - Descent Rate: 1500ft/min - Descent Speed: 250kts Options: - Use NATs: yes - Use PACOTS: yes - Use low airways: yes - Use high airways: yes

Route

KMGE KVPC

ID Type Via Altitude (ft/m) Position (lat/lon) Dist (leg/tot) Name
O KMGE APT - 0 / 0 33.91528 / -84.51635 - / 0 nm DOBBINS ARB
O KVPC APT - 0 / 0 34.12315 / -84.84871 20 / 20 nm CARTERSVILLE

Altitude Profile

Advertisement - Login to hide

KMGE

Details ICAO KMGE (MGE)
Name DOBBINS ARB
Region United States
Timezone America/New_York (UTC-4.0)
Stats Elevation 1,068 ft / 326 m (AMSL)
Location 33.915300° -84.516300°
Runways 1
Magnetic Variation 5.142° W

METAR

KMGE 162356Z 33006KT 10SM SCT010 OVC025 20/17 A3016 RMK AO2A SLP208 T01980174 10261 20198 53013 $

Decode

TAF

TAF KMGE 162105Z 1621/1803 32010KT 9999 VCSH FEW025 BKN040 BKN070 QNH3008INS BECMG 1706/1707 30005KT 9999 VCSH SCT005 OVC015 QNH3010INS BECMG 1708/1709 30005KT 4800 BR VCSH OVC005 QNH3012INS BECMG 1713/1714 30010KT 9999 NSW OVC012 QNH3015INS BECMG 1716/1717 32010G15KT 9999 BKN035 QNH3015INS TX21/1720Z TN14/1712Z

Decode

Departure Runways

ID Width Length Bearing (true/mag) Surface Threshold Overrun Markings Lighting
11 300 ft / 91 m 9,986 ft / 3,044 m 106.30° / 111.44° CONCRETE 0 ft / 0 m 1,000 ft / 305 m PREC-APP EDGE THRESHOLD ALSF-I
29 300 ft / 91 m 9,986 ft / 3,044 m 286.32° / 291.46° CONCRETE 0 ft / 0 m 1,000 ft / 305 m PREC-APP EDGE THRESHOLD SALS REIL-OMNI

KVPC

Details ICAO KVPC (VPC)
Name CARTERSVILLE
Region United States
Timezone America/New_York (UTC-4.0)
Stats Elevation 759 ft / 231 m (AMSL)
Location 34.123100° -84.848700°
Runways 1
Magnetic Variation 4.941° W

METAR

KVPC 162353Z AUTO 00000KT 10SM FEW007 SCT035 OVC110 18/17 A3017 RMK AO2 SLP207 60002 T01780167 10211 20178 51009

Decode

TAF

Not found

Destination Runways

ID Width Length Bearing (true/mag) Surface Threshold Overrun Markings Lighting
01 100 ft / 30 m 5,776 ft / 1,761 m 3.47° / 8.41° ASPHALT 740 ft / 226 m 0 ft / 0 m APP EDGE THRESHOLD
19 100 ft / 30 m 5,776 ft / 1,761 m 183.47° / 188.41° ASPHALT 0 ft / 0 m 0 ft / 0 m APP EDGE THRESHOLD REIL-OMNI

Approach Navaids

Runway Type Ident Frequency Range Bearing (true/mag) Slope Elevation
19 DME IVPC 110.35 MHz 18 nm / 33 km - - 759 ft / 231 m (AMSL)
19 LOC-LOC IVPC 110.35 MHz 18 nm / 33 km 183.47° / 188.41 ° - 759 ft / 231 m (AMSL)